Grandview, Texas
Current Conditions -  °F | °C
As of 4:55 PM on Friday 28 Nov 2014 (Local Time) from KINJ Reporting Station
Clear Clear  
Wind Chill: 69°   Ceiling: Unl
Heat Index: 69°   Visibility: 10mi
Dew Point: 47°   Wind: 16mph
Humidity: 45%   Direction: 180°S
Pressure: 30.06"   Gusts: 22mph
Location:  32.27°N, 97.18°W
Report Text: KINJ 282255Z AUTO 18014G19KT 10SM CLR 21/08 A3006 RMK AO2 T02050083
Loading
Personal Weather Stations






























Interactive Weather Map New forecast layout! Learn more

10-Day Weather Forecast

Advertisements
Track Severe Weather on mobile